createdAt,value
2023-03-24T00:01:01.960Z,4.60
2023-03-24T00:03:45.929Z,4.03
2023-03-24T00:06:22.811Z,3.90
2023-03-24T00:08:53.154Z,3.37
2023-03-24T00:11:23.347Z,4.23
2023-03-24T00:14:00.164Z,3.63
2023-03-24T00:16:34.810Z,4.50
2023-03-24T00:19:07.024Z,3.13
2023-03-24T00:21:35.066Z,3.40
2023-03-24T00:24:04.470Z,3.57
2023-03-24T00:26:52.528Z,3.07
2023-03-24T00:29:26.600Z,3.73
2023-03-24T00:32:01.089Z,3.83
2023-03-24T00:34:29.084Z,3.90
2023-03-24T00:36:57.052Z,3.40
2023-03-24T00:39:43.693Z,3.00
2023-03-24T00:42:14.069Z,2.90
2023-03-24T00:44:42.040Z,2.80
2023-03-24T00:47:11.158Z,2.60
2023-03-24T00:49:45.892Z,2.60
2023-03-24T00:52:18.218Z,2.40
2023-03-24T00:54:46.331Z,2.47
2023-03-24T00:57:21.622Z,2.70
2023-03-24T00:59:50.266Z,2.20
2023-03-24T01:02:36.044Z,2.50
2023-03-24T01:05:11.076Z,2.50
2023-03-24T01:07:44.353Z,2.30
2023-03-24T01:10:15.601Z,2.70
2023-03-24T01:12:46.203Z,2.50
2023-03-24T01:15:17.297Z,2.60
2023-03-24T01:17:47.347Z,2.80
2023-03-24T01:20:17.430Z,2.57
2023-03-24T01:22:46.401Z,2.40
2023-03-24T01:25:16.949Z,2.57
2023-03-24T01:27:55.722Z,2.47
2023-03-24T01:30:28.103Z,2.90
2023-03-24T01:32:56.825Z,2.53
2023-03-24T01:35:29.591Z,2.57
2023-03-24T01:38:01.997Z,2.70
2023-03-24T01:40:34.560Z,3.03
2023-03-24T01:43:05.665Z,2.73
2023-03-24T01:46:00.848Z,2.90
2023-03-24T01:48:34.699Z,3.17
2023-03-24T01:51:09.800Z,2.50
2023-03-24T01:53:41.744Z,2.37
2023-03-24T01:56:11.465Z,2.13
2023-03-24T01:58:49.955Z,2.17
2023-03-24T02:01:38.205Z,2.67
2023-03-24T02:04:23.200Z,2.60
2023-03-24T02:07:15.079Z,2.03
2023-03-24T02:09:45.370Z,2.20
2023-03-24T02:12:13.718Z,2.57
2023-03-24T02:14:54.771Z,2.50
2023-03-24T02:17:43.611Z,2.43
2023-03-24T02:20:46.781Z,3.53
2023-03-24T02:23:59.020Z,2.40
2023-03-24T02:26:48.735Z,2.70
2023-03-24T02:29:44.212Z,2.63
2023-03-24T02:32:40.005Z,2.63
2023-03-24T02:35:29.323Z,2.57
2023-03-24T02:38:26.860Z,3.00
2023-03-24T02:41:18.084Z,3.00
2023-03-24T02:43:58.172Z,3.00
2023-03-24T02:46:34.879Z,3.53
2023-03-24T02:49:20.377Z,2.90
2023-03-24T02:51:54.632Z,2.70
2023-03-24T02:54:30.687Z,2.87
2023-03-24T02:57:06.979Z,2.60
2023-03-24T03:00:10.271Z,2.60
2023-03-24T03:03:16.433Z,2.27
2023-03-24T03:05:50.635Z,2.87
2023-03-24T03:08:32.523Z,2.53
2023-03-24T03:11:02.461Z,2.53
2023-03-24T03:13:36.442Z,2.60
2023-03-24T03:16:10.145Z,2.77
2023-03-24T03:18:43.428Z,2.40
2023-03-24T03:21:14.349Z,2.63
2023-03-24T03:23:47.560Z,2.40
2023-03-24T03:26:19.658Z,2.43
2023-03-24T03:28:58.274Z,3.17
2023-03-24T03:31:35.793Z,2.70
2023-03-24T03:34:10.850Z,2.60
2023-03-24T03:36:48.368Z,2.93
2023-03-24T03:39:26.801Z,2.13
2023-03-24T03:41:56.335Z,2.43
2023-03-24T03:44:28.225Z,2.90
2023-03-24T03:46:57.187Z,2.77
2023-03-24T03:49:36.487Z,2.80
2023-03-24T03:52:14.603Z,2.70
2023-03-24T03:54:49.046Z,2.67
2023-03-24T03:57:18.192Z,2.93
2023-03-24T04:00:20.047Z,2.60
2023-03-24T04:03:36.587Z,2.60
2023-03-24T04:06:37.409Z,2.90
2023-03-24T04:09:17.879Z,3.07
2023-03-24T04:12:01.850Z,3.13
2023-03-24T04:15:23.724Z,3.20
2023-03-24T04:18:33.490Z,3.10
2023-03-24T04:21:33.355Z,2.87
2023-03-24T04:24:14.791Z,2.70
2023-03-24T04:26:54.595Z,2.90
2023-03-24T04:29:33.433Z,3.07
2023-03-24T04:32:22.886Z,3.00
2023-03-24T04:35:01.239Z,3.00
2023-03-24T04:37:51.730Z,2.33
2023-03-24T04:40:34.435Z,2.87
2023-03-24T04:43:27.488Z,2.70
2023-03-24T04:45:58.625Z,2.60
2023-03-24T04:48:51.110Z,1.97
2023-03-24T04:51:29.156Z,2.33
2023-03-24T04:54:09.420Z,2.03
2023-03-24T04:56:47.605Z,2.37
2023-03-24T04:59:23.944Z,2.30
2023-03-24T05:01:52.117Z,2.33
2023-03-24T05:04:40.858Z,1.93
2023-03-24T05:07:27.220Z,2.60
2023-03-24T05:10:00.188Z,4.17
2023-03-24T05:12:28.604Z,2.93
2023-03-24T05:15:17.890Z,2.60
2023-03-24T05:17:47.979Z,2.20
2023-03-24T05:20:17.523Z,4.33
2023-03-24T05:22:52.230Z,2.30
2023-03-24T05:25:22.271Z,1.97
2023-03-24T05:27:50.909Z,4.53
2023-03-24T05:30:25.739Z,2.10
2023-03-24T05:33:01.303Z,2.10
2023-03-24T05:35:31.763Z,2.00
2023-03-24T05:38:00.462Z,1.80
2023-03-24T05:40:28.521Z,2.07
2023-03-24T05:43:12.832Z,2.10
2023-03-24T05:45:46.029Z,1.73
2023-03-24T05:48:24.048Z,2.07
2023-03-24T05:51:09.180Z,1.90
2023-03-24T05:53:37.038Z,2.10
2023-03-24T05:56:15.399Z,2.10
2023-03-24T05:59:04.407Z,2.50
2023-03-24T06:02:07.767Z,2.37
2023-03-24T06:04:49.518Z,2.73
2023-03-24T06:07:26.958Z,2.63
2023-03-24T06:10:02.925Z,2.47
2023-03-24T06:12:38.684Z,2.70
2023-03-24T06:15:07.814Z,2.30
2023-03-24T06:17:37.590Z,2.57
2023-03-24T06:20:19.021Z,2.53
2023-03-24T06:22:59.997Z,2.67
2023-03-24T06:25:33.714Z,2.33
2023-03-24T06:28:17.173Z,3.03
2023-03-24T06:30:49.209Z,2.90
2023-03-24T06:33:32.897Z,3.50
2023-03-24T06:36:01.992Z,2.90
2023-03-24T06:38:33.893Z,3.67
2023-03-24T06:41:03.827Z,4.10
2023-03-24T06:43:33.169Z,3.40
2023-03-24T06:46:02.486Z,2.83
2023-03-24T06:48:31.623Z,3.20
2023-03-24T06:51:04.773Z,2.97
2023-03-24T06:53:34.300Z,3.10
2023-03-24T06:56:02.339Z,2.47
2023-03-24T06:58:38.002Z,2.93
2023-03-24T07:01:08.334Z,3.17
2023-03-24T07:03:56.819Z,3.00
2023-03-24T07:06:40.444Z,2.60
2023-03-24T07:09:20.247Z,2.70
2023-03-24T07:11:48.178Z,2.97
2023-03-24T07:14:16.550Z,2.97
2023-03-24T07:16:46.616Z,2.90
2023-03-24T07:19:32.262Z,3.10
2023-03-24T07:22:19.018Z,3.07
2023-03-24T07:25:09.667Z,3.20
2023-03-24T07:27:49.235Z,3.17
2023-03-24T07:30:24.203Z,3.23
2023-03-24T07:32:57.272Z,3.33
2023-03-24T07:35:25.207Z,3.50
2023-03-24T07:37:53.079Z,3.23
2023-03-24T07:40:23.807Z,3.20
2023-03-24T07:42:52.672Z,3.13
2023-03-24T07:45:26.461Z,3.70
2023-03-24T07:47:57.381Z,3.20
2023-03-24T07:50:25.464Z,3.93
2023-03-24T07:52:53.756Z,3.23
2023-03-24T07:55:23.215Z,3.93
2023-03-24T07:58:18.325Z,3.23
2023-03-24T08:01:01.688Z,3.87
2023-03-24T08:03:40.855Z,3.33
2023-03-24T08:06:17.784Z,3.47
2023-03-24T08:08:53.246Z,3.53
2023-03-24T08:11:22.890Z,3.50
2023-03-24T08:13:50.765Z,3.47
2023-03-24T08:16:18.631Z,3.43
2023-03-24T08:18:48.730Z,3.40
2023-03-24T08:21:16.591Z,3.07
2023-03-24T08:23:45.468Z,3.70
2023-03-24T08:26:14.115Z,3.87
2023-03-24T08:28:43.825Z,4.00
2023-03-24T08:31:13.333Z,4.10
2023-03-24T08:33:42.028Z,4.00
2023-03-24T08:36:10.098Z,3.50
2023-03-24T08:38:39.082Z,2.90
2023-03-24T08:41:08.930Z,2.73
2023-03-24T08:43:38.357Z,2.70
2023-03-24T08:46:12.486Z,2.47
2023-03-24T08:48:43.206Z,2.53
2023-03-24T08:51:13.255Z,2.57
2023-03-24T08:53:42.374Z,3.00
2023-03-24T08:56:11.909Z,2.73
2023-03-24T08:58:39.847Z,2.60
2023-03-24T09:01:09.950Z,2.60
2023-03-24T09:03:39.916Z,2.97
2023-03-24T09:06:08.476Z,2.70
2023-03-24T09:08:36.295Z,2.87
2023-03-24T09:11:05.084Z,2.67
2023-03-24T09:13:33.320Z,2.90
2023-03-24T09:16:04.795Z,2.90
2023-03-24T09:18:34.402Z,2.73
2023-03-24T09:21:02.962Z,2.30
2023-03-24T09:23:31.878Z,2.80
2023-03-24T09:26:00.950Z,2.27
2023-03-24T09:28:29.492Z,2.53
2023-03-24T09:31:01.436Z,2.53
2023-03-24T09:33:30.656Z,2.53
2023-03-24T09:36:01.607Z,2.70
2023-03-24T09:38:29.849Z,2.50
2023-03-24T09:41:01.602Z,2.20
2023-03-24T09:43:37.460Z,2.43
2023-03-24T09:46:12.705Z,2.17
2023-03-24T09:48:44.937Z,2.50
2023-03-24T09:51:22.071Z,2.40
2023-03-24T09:53:57.267Z,2.10
2023-03-24T09:56:26.549Z,2.20
2023-03-24T09:59:03.927Z,1.97
2023-03-24T10:01:32.349Z,2.07
2023-03-24T10:04:01.220Z,2.17
2023-03-24T10:06:32.854Z,2.43
2023-03-24T10:09:13.346Z,2.07
2023-03-24T10:11:50.925Z,1.90
2023-03-24T10:14:28.813Z,1.77
2023-03-24T10:17:04.638Z,1.70
2023-03-24T10:19:41.516Z,1.70
2023-03-24T10:22:20.345Z,1.33
2023-03-24T10:24:56.328Z,1.30
2023-03-24T10:27:29.936Z,1.33
2023-03-24T10:30:04.584Z,1.10
2023-03-24T10:32:35.767Z,1.13
2023-03-24T10:35:10.053Z,0.97
2023-03-24T10:37:39.443Z,1.07
2023-03-24T10:40:16.480Z,1.27
2023-03-24T10:42:46.210Z,1.20
2023-03-24T10:45:16.195Z,1.03
2023-03-24T10:47:45.070Z,0.80
2023-03-24T10:50:14.897Z,1.10
2023-03-24T10:52:48.794Z,1.20
2023-03-24T10:55:19.187Z,1.00
2023-03-24T10:57:50.895Z,0.70
2023-03-24T11:00:24.648Z,0.80
2023-03-24T11:02:58.738Z,1.20
2023-03-24T11:05:33.360Z,0.73
2023-03-24T11:08:25.588Z,0.90
2023-03-24T11:10:53.521Z,0.83
2023-03-24T11:13:29.740Z,1.17
2023-03-24T11:16:05.833Z,1.10
2023-03-24T11:18:34.094Z,1.13
2023-03-24T11:21:04.968Z,0.80
2023-03-24T11:23:36.420Z,1.00
2023-03-24T11:26:10.730Z,0.97
2023-03-24T11:28:41.878Z,0.80
2023-03-24T11:31:11.847Z,0.87
2023-03-24T11:33:46.694Z,0.60
2023-03-24T11:36:44.739Z,0.70
2023-03-24T11:39:19.947Z,0.50
2023-03-24T11:42:05.364Z,0.67
2023-03-24T11:44:44.150Z,0.50
2023-03-24T11:47:17.833Z,0.40
2023-03-24T11:49:51.327Z,0.40
2023-03-24T11:52:24.330Z,0.43
2023-03-24T11:54:54.946Z,0.40
2023-03-24T11:57:39.125Z,0.50
2023-03-24T12:00:16.502Z,0.40
2023-03-24T12:03:01.911Z,0.20
2023-03-24T12:05:34.841Z,0.50
2023-03-24T12:08:25.106Z,0.30
2023-03-24T12:11:08.936Z,0.30
2023-03-24T12:13:40.487Z,0.33
2023-03-24T12:16:32.918Z,0.40
2023-03-24T12:19:30.662Z,0.40
2023-03-24T12:22:08.036Z,0.30
2023-03-24T12:24:51.565Z,0.40
2023-03-24T12:27:34.345Z,0.40
2023-03-24T12:30:07.453Z,0.37
2023-03-24T12:32:52.662Z,0.40
2023-03-24T12:35:49.933Z,0.43
2023-03-24T12:38:35.171Z,0.20
2023-03-24T12:41:36.798Z,0.27
2023-03-24T12:44:23.525Z,0.70
2023-03-24T12:47:02.955Z,0.30
2023-03-24T12:49:48.752Z,0.60
2023-03-24T12:52:58.026Z,0.97
2023-03-24T12:55:43.816Z,1.07
2023-03-24T12:58:18.852Z,1.00
2023-03-24T13:00:59.972Z,0.40
2023-03-24T13:03:33.124Z,0.70
2023-03-24T13:06:17.217Z,1.20
2023-03-24T13:08:55.474Z,0.40
2023-03-24T13:11:33.272Z,0.80
2023-03-24T13:14:06.338Z,2.50
2023-03-24T13:16:38.850Z,1.03
2023-03-24T13:19:15.647Z,1.20
2023-03-24T13:21:45.294Z,0.20
2023-03-24T13:24:15.526Z,0.60
2023-03-24T13:26:54.418Z,0.30
2023-03-24T13:29:41.720Z,0.40
2023-03-24T13:32:27.002Z,0.50
2023-03-24T13:34:59.130Z,0.40
2023-03-24T13:37:34.070Z,0.40
2023-03-24T13:40:07.757Z,0.40
2023-03-24T13:42:39.185Z,0.30
2023-03-24T13:45:09.010Z,0.60
2023-03-24T13:47:57.740Z,0.40
2023-03-24T13:50:27.160Z,0.40
2023-03-24T13:52:56.423Z,0.40
2023-03-24T13:55:28.806Z,0.50
2023-03-24T13:58:01.595Z,0.53
2023-03-24T14:00:30.670Z,0.60
2023-03-24T14:03:15.444Z,0.30
2023-03-24T14:05:59.344Z,0.37
2023-03-24T14:08:43.907Z,0.60
2023-03-24T14:11:49.464Z,0.47
2023-03-24T14:14:23.759Z,0.60
2023-03-24T14:16:54.176Z,0.60
2023-03-24T14:19:26.707Z,1.47
2023-03-24T14:22:00.142Z,0.77
2023-03-24T14:24:32.884Z,0.80
2023-03-24T14:27:01.105Z,0.70
2023-03-24T14:29:41.330Z,0.47
2023-03-24T14:32:20.579Z,0.40
2023-03-24T14:34:57.997Z,0.40
2023-03-24T14:37:27.266Z,0.43
2023-03-24T14:39:58.389Z,0.40
2023-03-24T14:42:57.301Z,0.50
2023-03-24T14:45:41.901Z,0.40
2023-03-24T14:48:29.930Z,0.30
2023-03-24T14:51:04.685Z,0.50
2023-03-24T14:53:37.356Z,0.60
2023-03-24T14:56:07.929Z,0.80
2023-03-24T14:58:39.148Z,0.50
2023-03-24T15:01:08.409Z,0.53
2023-03-24T15:03:45.986Z,1.13
2023-03-24T15:06:17.224Z,0.67
2023-03-24T15:08:51.320Z,0.83
2023-03-24T15:11:24.314Z,0.77
2023-03-24T15:13:53.373Z,0.63
2023-03-24T15:16:24.953Z,0.60
2023-03-24T15:19:01.512Z,0.60
2023-03-24T15:21:34.816Z,0.60
2023-03-24T15:24:04.265Z,0.30
2023-03-24T15:26:33.231Z,0.37
2023-03-24T15:29:03.916Z,0.30
2023-03-24T15:31:32.227Z,0.37
2023-03-24T15:34:08.674Z,0.20
2023-03-24T15:36:46.281Z,0.30
2023-03-24T15:39:19.781Z,0.20
2023-03-24T15:41:52.836Z,0.20
2023-03-24T15:44:23.142Z,0.30
2023-03-24T15:46:51.505Z,0.23
2023-03-24T15:49:25.907Z,0.47
2023-03-24T15:51:59.766Z,0.47
2023-03-24T15:54:30.995Z,0.20
2023-03-24T15:57:17.935Z,0.50
2023-03-24T15:59:49.014Z,0.40
2023-03-24T16:02:29.765Z,0.37
2023-03-24T16:05:10.751Z,0.53
2023-03-24T16:07:42.523Z,0.50
2023-03-24T16:10:32.575Z,0.70
2023-03-24T16:13:14.542Z,0.50
2023-03-24T16:15:44.051Z,0.60
2023-03-24T16:18:17.076Z,0.60
2023-03-24T16:20:45.217Z,2.57
2023-03-24T16:23:14.458Z,0.70
2023-03-24T16:25:42.533Z,0.90
2023-03-24T16:28:13.745Z,0.90
2023-03-24T16:30:43.990Z,0.90
2023-03-24T16:33:12.642Z,1.00
2023-03-24T16:35:40.809Z,0.90
2023-03-24T16:38:11.215Z,0.80
2023-03-24T16:40:45.045Z,4.00
2023-03-24T16:43:12.928Z,1.00
2023-03-24T16:45:40.945Z,0.93
2023-03-24T16:48:11.532Z,1.40
2023-03-24T16:50:40.949Z,1.60
2023-03-24T16:53:09.846Z,1.83
2023-03-24T16:55:38.839Z,1.30
2023-03-24T16:58:09.427Z,1.17
2023-03-24T17:00:38.427Z,1.13
2023-03-24T17:03:08.097Z,1.10
2023-03-24T17:05:40.484Z,1.63
2023-03-24T17:08:10.382Z,1.17
2023-03-24T17:10:38.521Z,1.20
2023-03-24T17:13:08.095Z,1.20
2023-03-24T17:15:37.302Z,1.10
2023-03-24T17:18:08.328Z,0.90
2023-03-24T17:20:39.687Z,0.90
2023-03-24T17:23:11.256Z,1.20
2023-03-24T17:25:40.287Z,1.10
2023-03-24T17:28:14.311Z,5.30
2023-03-24T17:30:42.647Z,0.90
2023-03-24T17:33:14.534Z,1.00
2023-03-24T17:35:44.785Z,0.83
2023-03-24T17:38:14.975Z,1.20
2023-03-24T17:40:43.625Z,7.20
2023-03-24T17:43:13.918Z,2.33
2023-03-24T17:45:42.071Z,1.10
2023-03-24T17:48:10.064Z,1.10
2023-03-24T17:50:38.111Z,1.67
2023-03-24T17:53:06.181Z,1.10
2023-03-24T17:55:34.658Z,1.10
2023-03-24T17:58:04.278Z,1.07
2023-03-24T18:00:35.427Z,1.20
2023-03-24T18:03:03.376Z,1.07
2023-03-24T18:05:31.298Z,1.47
2023-03-24T18:07:59.156Z,1.50
2023-03-24T18:10:27.051Z,1.80
2023-03-24T18:12:55.429Z,1.50
2023-03-24T18:15:25.645Z,1.57
2023-03-24T18:17:54.992Z,3.50
2023-03-24T18:20:23.576Z,1.80
2023-03-24T18:22:52.743Z,1.70
2023-03-24T18:25:21.073Z,1.50
2023-03-24T18:27:49.657Z,2.50
2023-03-24T18:30:17.852Z,2.40
2023-03-24T18:32:45.771Z,2.03
2023-03-24T18:35:17.196Z,2.40
2023-03-24T18:37:45.659Z,2.10
2023-03-24T18:40:15.621Z,2.60
2023-03-24T18:42:43.593Z,1.97
2023-03-24T18:45:17.323Z,1.90
2023-03-24T18:47:45.940Z,1.53
2023-03-24T18:50:16.064Z,1.80
2023-03-24T18:52:43.945Z,1.40
2023-03-24T18:55:12.044Z,1.70
2023-03-24T18:57:41.325Z,2.37
2023-03-24T19:00:12.122Z,1.73
2023-03-24T19:02:40.623Z,1.50
2023-03-24T19:05:10.157Z,1.70
2023-03-24T19:07:39.461Z,1.27
2023-03-24T19:10:08.737Z,1.77
2023-03-24T19:12:37.080Z,1.60
2023-03-24T19:15:07.141Z,1.47
2023-03-24T19:17:36.268Z,1.40
2023-03-24T19:20:07.346Z,2.00
2023-03-24T19:22:35.412Z,1.53
2023-03-24T19:25:06.147Z,1.70
2023-03-24T19:27:34.318Z,1.90
2023-03-24T19:30:04.906Z,2.00
2023-03-24T19:32:32.986Z,1.83
2023-03-24T19:35:01.335Z,1.60
2023-03-24T19:37:31.733Z,1.50
2023-03-24T19:40:00.159Z,1.73
2023-03-24T19:42:33.279Z,1.80
2023-03-24T19:45:01.881Z,2.43
2023-03-24T19:47:30.316Z,2.23
2023-03-24T19:49:58.416Z,2.80
2023-03-24T19:52:26.355Z,1.80
2023-03-24T19:54:54.610Z,1.60
2023-03-24T19:57:23.149Z,1.80
2023-03-24T19:59:52.636Z,1.40
2023-03-24T20:02:21.395Z,1.70
2023-03-24T20:04:49.601Z,2.07
2023-03-24T20:07:18.425Z,1.63
2023-03-24T20:09:46.482Z,1.30
2023-03-24T20:12:14.803Z,1.80
2023-03-24T20:14:43.521Z,1.20
2023-03-24T20:17:18.140Z,5.37
2023-03-24T20:19:46.678Z,1.50
2023-03-24T20:22:15.522Z,1.23
2023-03-24T20:24:44.600Z,1.23
2023-03-24T20:27:13.059Z,1.37
2023-03-24T20:29:41.787Z,1.40
2023-03-24T20:32:11.219Z,1.33
2023-03-24T20:34:40.739Z,2.20
2023-03-24T20:37:08.685Z,1.10
2023-03-24T20:39:36.874Z,1.37
2023-03-24T20:42:04.974Z,1.37
2023-03-24T20:44:32.888Z,1.40
2023-03-24T20:47:00.963Z,1.37
2023-03-24T20:49:29.076Z,1.33
2023-03-24T20:51:58.574Z,1.20
2023-03-24T20:54:26.677Z,1.10
2023-03-24T20:56:54.830Z,1.40
2023-03-24T20:59:23.068Z,1.50
2023-03-24T21:01:50.919Z,1.27
2023-03-24T21:04:19.826Z,1.47
2023-03-24T21:06:47.693Z,1.17
2023-03-24T21:09:16.990Z,1.30
2023-03-24T21:11:44.860Z,1.27
2023-03-24T21:14:13.508Z,1.93
2023-03-24T21:16:41.425Z,1.40
2023-03-24T21:19:10.335Z,1.30
2023-03-24T21:21:38.993Z,1.60
2023-03-24T21:24:07.195Z,1.40
2023-03-24T21:26:36.486Z,1.60
2023-03-24T21:29:04.360Z,1.50
2023-03-24T21:31:32.370Z,1.60
2023-03-24T21:34:00.351Z,1.33
2023-03-24T21:36:29.936Z,1.60
2023-03-24T21:38:58.567Z,1.00
2023-03-24T21:41:26.433Z,1.30
2023-03-24T21:43:55.820Z,1.50
2023-03-24T21:46:25.819Z,1.37
2023-03-24T21:48:59.381Z,1.30
2023-03-24T21:51:34.047Z,1.47
2023-03-24T21:54:04.642Z,1.40
2023-03-24T21:56:33.511Z,1.33
2023-03-24T21:59:03.328Z,1.40
2023-03-24T22:01:33.931Z,1.60
2023-03-24T22:04:03.429Z,1.70
2023-03-24T22:06:37.405Z,1.40
2023-03-24T22:09:08.214Z,1.50
2023-03-24T22:11:36.601Z,1.60
2023-03-24T22:14:05.784Z,1.40
2023-03-24T22:16:33.997Z,1.50
2023-03-24T22:19:02.453Z,1.10
2023-03-24T22:21:32.200Z,1.73
2023-03-24T22:24:00.147Z,1.13
2023-03-24T22:26:28.425Z,1.43
2023-03-24T22:28:57.174Z,0.93
2023-03-24T22:31:26.596Z,0.80
2023-03-24T22:33:54.583Z,0.90
2023-03-24T22:36:22.466Z,0.97
2023-03-24T22:38:50.393Z,1.30
2023-03-24T22:41:18.274Z,1.00
2023-03-24T22:43:46.174Z,1.20
2023-03-24T22:46:14.049Z,1.30
2023-03-24T22:48:43.299Z,1.13
2023-03-24T22:51:16.786Z,1.23
2023-03-24T22:53:44.742Z,1.50
2023-03-24T22:56:12.873Z,1.60
2023-03-24T22:58:41.576Z,1.30
2023-03-24T23:01:10.048Z,1.30
2023-03-24T23:03:37.981Z,1.37
2023-03-24T23:06:09.122Z,1.50
2023-03-24T23:08:38.492Z,1.00
2023-03-24T23:11:08.157Z,1.30
2023-03-24T23:13:36.389Z,1.17
2023-03-24T23:16:04.720Z,1.20
2023-03-24T23:18:33.075Z,1.43
2023-03-24T23:21:06.961Z,1.10
2023-03-24T23:23:37.369Z,0.80
2023-03-24T23:26:06.609Z,0.70
2023-03-24T23:28:35.415Z,0.60
2023-03-24T23:31:03.519Z,0.57
2023-03-24T23:33:31.415Z,0.50
2023-03-24T23:36:01.742Z,0.40
2023-03-24T23:38:29.706Z,0.30
2023-03-24T23:40:59.199Z,0.37
2023-03-24T23:43:27.531Z,0.40
2023-03-24T23:45:56.148Z,0.40
2023-03-24T23:48:24.182Z,0.30
2023-03-24T23:50:56.989Z,0.30
2023-03-24T23:53:24.940Z,0.50
2023-03-24T23:55:57.176Z,0.20
2023-03-24T23:58:29.138Z,0.10
